Ana Sayfa
METAR-TAF:

METAR-TAF

Havaalanları :

Gaziantep Havalimanı

Gaziantep, Türkiye

Enlem: 37-05N, Boylam: 037-22E, yükseklik: 701 m

Güncel hava durumu gözlemi

Rapor saat 23:50 UTC de 32 dakika önce yapıldı.
Rüzgar kuzeydan 5 kt
Sıcaklık 3°C
Nem 87%
Basınç 1018 hPa
Görüş mesafesi 10 km veya daha fazla
1500 m altında bulut yok ve kümülonimbus yok

METAR: LTAJ 232350Z 01005KT CAVOK 03/01 Q1018 NOSIG RMK RWY10 02004KT

Saat: 03:22 (00:22 UTC)

Tahmin

Rapor saat 22:40 UTC de 1 saat ve 42 dakika önce yapıldı.
Ayın 24'si saat 00 UTC'den ayın 24'si saat 24 UTC'ye kadar geçerli Tahmin
Rüzgar kuzey/kuzeydoğudan 8 kt
Görüş mesafesi 10 km veya daha fazla
1500 m altında bulut yok ve kümülonimbus yok
Dönüşüyor
ayın 24'si saat 06 UTC'den ayın 24'si saat 08 UTC'ye kadar
4000 ft yükseklikte az bulutlu
10000 ft yükseklikte parçalı çok bulutlu

TAF: LTAJ 232240Z 2400/2424 02008KT CAVOK BECMG 2406/2408 FEW040 BKN100

4.000'den fazla havaalanı için hava durumu gözlemleri ve tahminleri (METAR ve TAF raporları).

Kullanılabilir istasyonlar harita üzerinde sarı ve kırmızı noktalarla gösterilir.

İstasyonun adını görmek için fareyi noktanın üzerinde gezdirin.

Sonrasında hava gözlem ve tahminlerini görmek için tıklayın.

Haritayı değiştirmek için: yaklaştırmak için siyah artı işaretli yeşil düğmeye ve uzaklaştırmak için de eksi işaretli düğmeye hızla tıklayın; bitişik haritalar için yeşil okları kullanın.


METAR-TAF: